Hagerhill, Kentucky
Current Conditions -  °F | °C
As of 8:35 PM on Monday 22 Dec 2014 (Local Time) from KSJS Reporting Station
Scattered Clouds Scattered Clouds  
Wind Chill: 52°   Ceiling: Unl
Heat Index: 52°   Visibility: 10mi
Dew Point: 41°   Wind: 10mph
Humidity: 66%   Direction: 140°SE
Pressure: 29.83"   Gusts: NA
Location:  37.79°N, 82.79°W
Report Text: KSJS 230135Z AUTO 14009KT 10SM SCT065 SCT080 11/05 A2983 RMK AO2 T01110050
Loading
Personal Weather Stations






























Interactive Weather Map New forecast layout! Learn more

10-Day Weather Forecast

Advertisements
Track Severe Weather on mobile